createdAt,value
2022-12-25T00:02:07.041Z,17.00
2022-12-25T00:04:35.211Z,17.20
2022-12-25T00:07:04.705Z,16.60
2022-12-25T00:09:32.903Z,19.30
2022-12-25T00:12:01.168Z,18.20
2022-12-25T00:14:29.326Z,19.00
2022-12-25T00:16:57.605Z,18.70
2022-12-25T00:19:25.770Z,18.20
2022-12-25T00:21:56.892Z,20.00
2022-12-25T00:24:24.885Z,20.40
2022-12-25T00:26:53.080Z,19.10
2022-12-25T00:29:21.256Z,18.60
2022-12-25T00:31:50.834Z,19.20
2022-12-25T00:34:19.645Z,17.10
2022-12-25T00:36:51.793Z,18.50
2022-12-25T00:39:20.017Z,18.60
2022-12-25T00:42:06.674Z,19.40
2022-12-25T00:44:35.927Z,18.00
2022-12-25T00:47:07.180Z,18.20
2022-12-25T00:49:35.460Z,19.10
2022-12-25T00:52:08.140Z,18.60
2022-12-25T00:54:39.310Z,18.90
2022-12-25T00:57:07.525Z,18.00
2022-12-25T00:59:37.205Z,17.70
2022-12-25T01:02:23.445Z,17.90
2022-12-25T01:04:59.032Z,17.90
2022-12-25T01:07:30.424Z,18.40
2022-12-25T01:10:17.427Z,19.40
2022-12-25T01:12:45.682Z,18.80
2022-12-25T01:15:15.252Z,20.10
2022-12-25T01:17:47.836Z,19.50
2022-12-25T01:20:18.469Z,18.00
2022-12-25T01:22:46.398Z,20.40
2022-12-25T01:25:17.711Z,19.20
2022-12-25T01:27:45.678Z,19.50
2022-12-25T01:30:16.367Z,19.40
2022-12-25T01:32:44.294Z,20.00
2022-12-25T01:35:12.226Z,19.30
2022-12-25T01:37:40.164Z,19.80
2022-12-25T01:40:11.475Z,21.00
2022-12-25T01:42:39.677Z,19.40
2022-12-25T01:45:44.950Z,19.10
2022-12-25T01:48:33.395Z,19.50
2022-12-25T01:51:29.566Z,18.60
2022-12-25T01:54:05.671Z,19.80
2022-12-25T01:56:38.380Z,17.40
2022-12-25T01:59:12.101Z,18.30
2022-12-25T02:04:39.402Z,16.70
2022-12-25T02:07:13.963Z,16.00
2022-12-25T02:09:45.625Z,16.30
2022-12-25T02:12:22.147Z,17.70
2022-12-25T02:15:06.355Z,16.20
2022-12-25T02:17:59.555Z,15.40
2022-12-25T02:20:48.615Z,16.40
2022-12-25T02:23:38.292Z,16.00
2022-12-25T02:26:22.159Z,14.20
2022-12-25T02:31:49.210Z,15.50
2022-12-25T02:34:47.325Z,16.40
2022-12-25T02:37:34.333Z,15.80
2022-12-25T02:40:36.916Z,17.60
2022-12-25T02:43:49.814Z,16.70
2022-12-25T02:46:42.801Z,17.10
2022-12-25T02:49:45.432Z,15.50
2022-12-25T02:52:41.417Z,16.80
2022-12-25T02:55:43.141Z,16.30
2022-12-25T02:58:37.124Z,17.70
2022-12-25T03:01:34.565Z,15.70
2022-12-25T03:04:37.004Z,16.10
2022-12-25T03:07:23.686Z,16.30
2022-12-25T03:10:25.219Z,15.70
2022-12-25T03:13:20.226Z,16.00
2022-12-25T03:16:10.474Z,14.60
2022-12-25T03:18:41.968Z,15.20
2022-12-25T03:21:31.996Z,14.80
2022-12-25T03:24:21.380Z,13.50
2022-12-25T03:26:56.140Z,14.40
2022-12-25T03:29:51.129Z,15.10
2022-12-25T03:32:43.853Z,14.10
2022-12-25T03:35:45.509Z,14.90
2022-12-25T03:38:50.383Z,14.20
2022-12-25T03:42:18.833Z,15.50
2022-12-25T03:45:47.773Z,14.40
2022-12-25T03:48:41.660Z,15.60
2022-12-25T03:51:38.035Z,17.20
2022-12-25T03:54:29.496Z,17.90
2022-12-25T03:57:19.620Z,17.80
2022-12-25T04:00:06.439Z,17.50
2022-12-25T04:02:57.395Z,18.40
2022-12-25T04:05:48.196Z,16.60
2022-12-25T04:08:36.263Z,15.90
2022-12-25T04:11:23.072Z,16.40
2022-12-25T04:14:09.898Z,18.70
2022-12-25T04:16:58.173Z,16.40
2022-12-25T04:19:44.613Z,16.50
2022-12-25T04:22:31.333Z,14.70
2022-12-25T04:25:18.485Z,15.70
2022-12-25T04:28:06.774Z,15.20
2022-12-25T04:30:53.529Z,14.70
2022-12-25T04:33:43.550Z,17.00
2022-12-25T04:36:15.558Z,16.40
2022-12-25T04:38:46.628Z,15.30
2022-12-25T04:41:17.936Z,15.50
2022-12-25T04:43:46.132Z,16.80
2022-12-25T04:46:14.333Z,16.70
2022-12-25T04:48:43.839Z,17.70
2022-12-25T04:51:19.665Z,18.50
2022-12-25T04:53:52.254Z,17.70
2022-12-25T04:56:23.576Z,18.30
2022-12-25T04:58:51.841Z,17.40
2022-12-25T05:01:19.887Z,18.30
2022-12-25T05:03:51.911Z,16.90
2022-12-25T05:06:21.226Z,18.20
2022-12-25T05:08:49.177Z,16.70
2022-12-25T05:11:20.170Z,18.40
2022-12-25T05:13:51.339Z,18.60
2022-12-25T05:16:23.341Z,17.20
2022-12-25T05:18:54.746Z,18.80
2022-12-25T05:21:24.101Z,19.80
2022-12-25T05:23:55.606Z,19.70
2022-12-25T05:26:28.463Z,20.50
2022-12-25T05:28:56.719Z,15.70
2022-12-25T05:31:28.072Z,19.60
2022-12-25T05:33:56.321Z,21.50
2022-12-25T05:36:24.464Z,21.00
2022-12-25T05:38:52.366Z,19.30
2022-12-25T05:41:20.399Z,21.80
2022-12-25T05:43:48.532Z,20.00
2022-12-25T05:46:16.888Z,20.20
2022-12-25T05:48:45.955Z,19.10
2022-12-25T05:51:18.122Z,19.80
2022-12-25T05:53:46.320Z,19.10
2022-12-25T05:56:14.529Z,20.80
2022-12-25T05:58:42.702Z,19.40
2022-12-25T06:01:14.942Z,19.00
2022-12-25T06:03:47.244Z,21.10
2022-12-25T06:06:15.463Z,19.00
2022-12-25T06:08:45.348Z,19.30
2022-12-25T06:11:17.417Z,20.20
2022-12-25T06:13:52.980Z,19.00
2022-12-25T06:16:21.123Z,19.00
2022-12-25T06:18:55.155Z,19.40
2022-12-25T06:21:24.533Z,19.00
2022-12-25T06:23:52.853Z,19.10
2022-12-25T06:26:21.569Z,20.30
2022-12-25T06:28:56.141Z,21.00
2022-12-25T06:31:26.761Z,20.10
2022-12-25T06:33:55.357Z,23.60
2022-12-25T06:36:29.318Z,20.30
2022-12-25T06:39:03.157Z,19.10
2022-12-25T06:41:34.742Z,21.20
2022-12-25T06:44:03.033Z,19.20
2022-12-25T06:46:34.337Z,21.10
2022-12-25T06:49:02.564Z,18.40
2022-12-25T06:51:34.624Z,20.60
2022-12-25T06:54:06.190Z,19.00
2022-12-25T06:56:36.041Z,19.00
2022-12-25T06:59:08.716Z,20.20
2022-12-25T07:01:52.425Z,20.30
2022-12-25T07:04:43.053Z,18.50
2022-12-25T07:07:14.606Z,19.20
2022-12-25T07:09:45.581Z,20.40
2022-12-25T07:12:13.753Z,20.40
2022-12-25T07:14:41.800Z,19.90
2022-12-25T07:17:09.936Z,20.30
2022-12-25T07:19:44.604Z,18.10
2022-12-25T07:22:17.407Z,18.30
2022-12-25T07:24:45.645Z,18.50
2022-12-25T07:27:15.237Z,19.00
2022-12-25T07:29:44.631Z,18.90
2022-12-25T07:32:12.623Z,18.30
2022-12-25T07:34:43.864Z,17.50
2022-12-25T07:37:12.081Z,19.50
2022-12-25T07:39:43.903Z,19.40
2022-12-25T07:42:16.494Z,18.90
2022-12-25T07:44:50.544Z,19.70
2022-12-25T07:47:18.525Z,19.10
2022-12-25T07:49:46.442Z,19.50
2022-12-25T07:52:17.210Z,18.40
2022-12-25T07:54:47.063Z,19.00
2022-12-25T07:57:15.467Z,19.30
2022-12-25T07:59:43.783Z,18.80
2022-12-25T08:02:11.981Z,17.20
2022-12-25T08:04:40.277Z,17.70
2022-12-25T08:07:08.446Z,17.80
2022-12-25T08:09:37.297Z,18.10
2022-12-25T08:12:06.760Z,18.30
2022-12-25T08:14:34.687Z,17.80
2022-12-25T08:17:02.719Z,18.20
2022-12-25T08:19:36.064Z,17.30
2022-12-25T08:22:04.022Z,17.70
2022-12-25T08:24:31.975Z,16.90
2022-12-25T08:27:06.391Z,16.50
2022-12-25T08:29:34.385Z,16.70
2022-12-25T08:32:02.412Z,16.70
2022-12-25T08:34:30.441Z,16.20
2022-12-25T08:36:58.627Z,16.00
2022-12-25T08:39:28.127Z,16.90
2022-12-25T08:41:57.564Z,17.90
2022-12-25T08:44:25.541Z,18.50
2022-12-25T08:46:56.017Z,18.30
2022-12-25T08:49:29.113Z,20.80
2022-12-25T08:51:57.470Z,21.00
2022-12-25T08:54:25.652Z,22.40
2022-12-25T08:56:58.624Z,22.20
2022-12-25T08:59:31.476Z,23.70
2022-12-25T09:01:59.827Z,24.50
2022-12-25T09:04:33.612Z,25.50
2022-12-25T09:07:03.600Z,26.20
2022-12-25T09:09:31.617Z,25.60
2022-12-25T09:11:59.886Z,24.60
2022-12-25T09:14:31.016Z,23.20
2022-12-25T09:16:58.966Z,23.70
2022-12-25T09:19:27.366Z,24.60
2022-12-25T09:21:58.649Z,24.60
2022-12-25T09:24:30.052Z,25.90
2022-12-25T09:26:58.207Z,24.10
2022-12-25T09:29:26.137Z,27.10
2022-12-25T09:31:54.024Z,23.10
2022-12-25T09:34:22.378Z,23.90
2022-12-25T09:36:53.433Z,26.00
2022-12-25T09:39:24.583Z,26.40
2022-12-25T09:42:09.997Z,24.00
2022-12-25T09:44:44.988Z,25.70
2022-12-25T09:47:17.671Z,26.70
2022-12-25T09:50:12.316Z,23.00
2022-12-25T09:53:16.083Z,27.60
2022-12-25T09:56:14.447Z,27.30
2022-12-25T09:58:45.891Z,26.30
2022-12-25T10:01:31.912Z,26.00
2022-12-25T10:04:15.214Z,26.40
2022-12-25T10:07:20.156Z,25.40
2022-12-25T10:10:11.101Z,23.70
2022-12-25T10:12:54.076Z,24.80
2022-12-25T10:15:55.609Z,25.90
2022-12-25T10:18:35.191Z,26.10
2022-12-25T10:21:13.206Z,23.40
2022-12-25T10:24:02.904Z,22.00
2022-12-25T10:26:35.937Z,25.10
2022-12-25T10:29:19.529Z,23.70
2022-12-25T10:31:53.895Z,23.20
2022-12-25T10:34:25.627Z,23.20
2022-12-25T10:36:54.151Z,24.70
2022-12-25T10:39:26.879Z,23.80
2022-12-25T10:42:23.615Z,24.90
2022-12-25T10:44:59.573Z,24.00
2022-12-25T10:47:39.329Z,23.50
2022-12-25T10:50:34.022Z,25.70
2022-12-25T10:53:06.358Z,24.80
2022-12-25T10:55:34.443Z,25.20
2022-12-25T10:58:02.664Z,24.90
2022-12-25T11:00:35.599Z,24.50
2022-12-25T11:03:07.620Z,25.50
2022-12-25T11:05:39.530Z,23.20
2022-12-25T11:08:21.648Z,23.60
2022-12-25T11:10:55.634Z,21.80
2022-12-25T11:13:31.330Z,22.00
2022-12-25T11:16:09.556Z,22.50
2022-12-25T11:18:56.646Z,20.30
2022-12-25T11:21:37.211Z,19.10
2022-12-25T11:24:17.782Z,19.80
2022-12-25T11:26:52.515Z,18.40
2022-12-25T11:29:29.899Z,18.60
2022-12-25T11:32:04.197Z,20.60
2022-12-25T11:34:45.588Z,21.40
2022-12-25T11:37:40.371Z,20.80
2022-12-25T11:40:26.703Z,20.70
2022-12-25T11:43:12.417Z,21.50
2022-12-25T11:45:57.211Z,21.10
2022-12-25T11:48:46.878Z,21.80
2022-12-25T11:51:20.035Z,21.80
2022-12-25T11:54:04.220Z,20.40
2022-12-25T11:56:37.120Z,19.70
2022-12-25T11:59:40.979Z,18.80
2022-12-25T12:02:29.274Z,19.70
2022-12-25T12:05:18.797Z,19.50
2022-12-25T12:08:03.448Z,20.30
2022-12-25T12:11:16.467Z,21.30
2022-12-25T12:14:35.049Z,19.90
2022-12-25T12:17:10.088Z,22.80
2022-12-25T12:19:40.563Z,20.30
2022-12-25T12:22:19.416Z,20.80
2022-12-25T12:24:57.864Z,20.80
2022-12-25T12:27:40.777Z,20.60
2022-12-25T12:30:34.819Z,21.70
2022-12-25T12:33:08.032Z,19.50
2022-12-25T12:35:41.903Z,19.40
2022-12-25T12:38:20.773Z,20.00
2022-12-25T12:41:07.289Z,18.80
2022-12-25T12:43:43.212Z,17.30
2022-12-25T12:46:31.298Z,18.00
2022-12-25T12:49:22.571Z,20.30
2022-12-25T12:51:51.230Z,19.70
2022-12-25T12:54:24.214Z,22.90
2022-12-25T12:57:08.398Z,22.50
2022-12-25T12:59:47.016Z,23.30
2022-12-25T13:02:53.216Z,22.80
2022-12-25T13:05:48.248Z,21.40
2022-12-25T13:09:05.836Z,19.30
2022-12-25T13:11:47.807Z,20.10
2022-12-25T13:14:21.455Z,17.80
2022-12-25T13:16:55.249Z,16.40
2022-12-25T13:19:29.453Z,16.30
2022-12-25T13:22:07.128Z,14.60
2022-12-25T13:24:39.475Z,15.10
2022-12-25T13:27:36.712Z,16.20
2022-12-25T13:30:19.786Z,15.40
2022-12-25T13:32:50.997Z,17.50
2022-12-25T13:35:24.029Z,17.50
2022-12-25T13:37:56.200Z,15.90
2022-12-25T13:40:30.101Z,17.20
2022-12-25T13:43:02.642Z,16.90
2022-12-25T13:45:34.560Z,15.50
2022-12-25T13:48:16.682Z,16.00
2022-12-25T13:50:51.846Z,17.00
2022-12-25T13:53:19.800Z,16.90
2022-12-25T13:55:54.915Z,18.90
2022-12-25T13:58:33.759Z,18.70
2022-12-25T14:01:04.637Z,18.50
2022-12-25T14:03:38.147Z,18.30
2022-12-25T14:08:54.776Z,17.30
2022-12-25T14:11:27.663Z,19.00
2022-12-25T14:14:06.564Z,19.40
2022-12-25T14:16:35.966Z,20.00
2022-12-25T14:19:04.275Z,21.60
2022-12-25T19:02:25.386Z,38.40
2022-12-25T19:04:58.152Z,41.70
2022-12-25T19:07:26.717Z,43.80
2022-12-25T19:09:54.884Z,38.60
2022-12-25T19:12:27.039Z,39.60
2022-12-25T19:14:57.706Z,39.50
2022-12-25T19:17:31.617Z,50.30
2022-12-25T19:20:08.658Z,43.20
2022-12-25T19:22:36.857Z,34.60
2022-12-25T19:25:09.185Z,34.50
2022-12-25T19:27:37.176Z,118.10
2022-12-25T19:30:09.771Z,131.50
2022-12-25T19:32:38.549Z,142.10
2022-12-25T19:35:10.339Z,132.80
2022-12-25T19:37:38.631Z,152.90
2022-12-25T19:40:11.368Z,177.70
2022-12-25T19:42:39.788Z,157.20
2022-12-25T19:45:12.179Z,161.30
2022-12-25T19:47:45.792Z,166.20
2022-12-25T19:52:45.089Z,147.80
2022-12-25T19:55:13.885Z,149.60
2022-12-25T19:57:42.016Z,151.10
2022-12-25T20:00:14.575Z,149.40
2022-12-25T20:02:42.802Z,162.40
2022-12-25T20:07:48.322Z,155.60
2022-12-25T20:10:16.521Z,161.00
2022-12-25T20:12:48.921Z,163.00
2022-12-25T20:15:21.070Z,165.50
2022-12-25T20:17:49.148Z,166.00
2022-12-25T20:20:20.254Z,157.60
2022-12-25T20:22:48.465Z,141.70
2022-12-25T20:25:16.646Z,137.70
2022-12-25T20:27:44.886Z,107.10
2022-12-25T20:30:15.192Z,53.70
2022-12-25T20:32:49.758Z,40.40
2022-12-25T20:35:19.273Z,31.80
2022-12-25T20:37:47.214Z,27.40
2022-12-25T20:40:17.595Z,25.10
2022-12-25T20:42:50.725Z,23.60
2022-12-25T20:45:18.962Z,22.20
2022-12-25T20:47:47.116Z,22.60
2022-12-25T20:50:16.093Z,23.30
2022-12-25T20:52:44.296Z,23.20
2022-12-25T20:55:14.749Z,22.40
2022-12-25T20:57:46.039Z,22.40
2022-12-25T21:00:16.305Z,23.20
2022-12-25T21:02:44.731Z,22.80
2022-12-25T21:05:18.939Z,22.10
2022-12-25T21:07:46.886Z,23.00
2022-12-25T21:10:14.851Z,24.80
2022-12-25T21:12:42.999Z,22.70
2022-12-25T21:15:15.814Z,22.30
2022-12-25T21:17:44.264Z,24.30
2022-12-25T21:20:12.482Z,22.40
2022-12-25T21:22:40.760Z,24.70
2022-12-25T21:25:11.673Z,23.00
2022-12-25T21:27:39.852Z,22.90
2022-12-25T21:30:15.387Z,26.30
2022-12-25T21:33:03.686Z,25.00
2022-12-25T21:35:40.682Z,24.20
2022-12-25T21:38:08.637Z,26.00
2022-12-25T21:40:41.568Z,25.40
2022-12-25T21:43:14.696Z,27.80
2022-12-25T21:45:42.923Z,22.20
2022-12-25T21:48:10.844Z,27.60
2022-12-25T21:50:59.394Z,27.60
2022-12-25T21:53:27.569Z,29.20
2022-12-25T21:56:14.821Z,29.50
2022-12-25T21:58:44.404Z,29.30
2022-12-25T22:01:17.858Z,28.90
2022-12-25T22:03:49.020Z,28.70
2022-12-25T22:06:35.851Z,31.30
2022-12-25T22:09:10.120Z,29.80
2022-12-25T22:11:56.897Z,31.10
2022-12-25T22:14:55.772Z,29.70
2022-12-25T22:18:01.492Z,28.40
2022-12-25T22:20:38.453Z,29.90
2022-12-25T22:23:06.442Z,30.00
2022-12-25T22:25:34.396Z,29.80
2022-12-25T22:28:02.415Z,27.70
2022-12-25T22:30:30.605Z,28.20
2022-12-25T22:32:59.245Z,28.40
2022-12-25T22:35:27.453Z,26.80
2022-12-25T22:38:00.424Z,28.10
2022-12-25T22:40:32.952Z,25.80
2022-12-25T22:43:00.903Z,28.60
2022-12-25T22:45:29.068Z,23.40
2022-12-25T22:47:57.062Z,23.10
2022-12-25T22:50:25.326Z,23.10
2022-12-25T22:52:55.028Z,22.50
2022-12-25T22:55:23.044Z,19.90
2022-12-25T22:57:56.103Z,20.00
2022-12-25T23:00:24.251Z,17.50
2022-12-25T23:02:56.607Z,17.90
2022-12-25T23:05:25.043Z,16.90
2022-12-25T23:07:53.016Z,14.60
2022-12-25T23:10:21.188Z,14.80
2022-12-25T23:13:08.263Z,14.30
2022-12-25T23:15:36.643Z,13.60
2022-12-25T23:18:25.020Z,13.60
2022-12-25T23:21:16.476Z,13.90
2022-12-25T23:24:03.875Z,13.40
2022-12-25T23:26:32.663Z,12.40
2022-12-25T23:29:19.216Z,13.60
2022-12-25T23:31:53.718Z,13.90
2022-12-25T23:34:26.788Z,12.50
2022-12-25T23:36:54.772Z,11.80
2022-12-25T23:39:22.722Z,11.50
2022-12-25T23:42:00.180Z,10.30
2022-12-25T23:44:31.436Z,11.20
2022-12-25T23:47:01.881Z,9.00
2022-12-25T23:49:30.717Z,9.70
2022-12-25T23:52:00.225Z,8.00
2022-12-25T23:54:34.161Z,8.00
2022-12-25T23:59:33.648Z,5.80
